Grete Maersk — OYCY2 — position and weather

sailwx.info

Track history (hours):
 
Tides and Currents Weather Stations Pressure Air Temp Water Temp Dewpoint Dewpoint Depression Visibility Wind Speed Wind Dir Waves Ship Positions

Grete Maersk

Last reported at 2015-Mar-26 13:21 UTC. Time now 2015-Apr-02 03:09 UTC.
Position N 30°57' E 032°19'.

MMSI: 218824136.

Date/timePositionNaut miles runAvg speedWind from/ knotsBaromVisibWave heightAir tempDewpointWater temp
2015-Mar-26 13:21N 30°57' E 032°19'8 9.1
2015-Mar-26 12:27N 31°06' E 032°19'19 1.0
2015-Mar-25 17:13N 31°25' E 032°19'5 7.9
2015-Mar-25 16:33N 31°29' E 032°15'1311.7
2015-Mar-25 15:29N 31°38' E 032°05'  
2015-Mar-22 15:19N 36°29' E 013°60'1013.2
2015-Mar-22 14:33N 36°32' E 013°48'1515.2
2015-Mar-22 13:33N 36°37' E 013°30'  
2015-Mar-20 05:34N 35°59' W 005°16'250 6.7
2015-Mar-18 16:32N 37°55' W 009°52'2922.6
2015-Mar-18 15:14N 38°24' W 010°03'1522.3
2015-Mar-18 14:32N 38°39' W 010°07'2322.1
2015-Mar-18 13:29N 39°02' W 010°07'80019.9
2015-Mar-16 21:19N 50°26' W 000°23'1821.9
2015-Mar-16 20:28N 50°31' E 000°05'2021.4
2015-Mar-16 19:33N 50°36' E 000°35'2120.9
2015-Mar-16 18:33N 50°48' E 001°02'2121.3
2015-Mar-16 17:34N 51°02' E 001°27'2323.3
2015-Mar-16 16:34N 51°23' E 001°44'2322.9
2015-Mar-16 15:34N 51°46' E 001°44'1212.1
2015-Mar-16 14:34N 51°56' E 001°33'9 8.8
2015-Mar-16 13:33N 51°57' E 001°19'  
Track history (hours):
 
Tides and Currents Weather Stations Pressure Air Temp Water Temp Dewpoint Dewpoint Depression Visibility Wind Speed Wind Dir Waves Ship Positions

Grete Maersk

Last reported at 2015-Mar-26 13:21 UTC. Time now 2015-Apr-02 03:09 UTC.
Position N 30°57' E 032°19'.

MMSI: 218824136.

Date/timePositionNaut miles runAvg speedWind from/ knotsBaromVisibWave heightAir tempDewpointWater temp
2015-Mar-26 13:21N 30°57' E 032°19'8 9.1
2015-Mar-26 12:27N 31°06' E 032°19'19 1.0
2015-Mar-25 17:13N 31°25' E 032°19'5 7.9
2015-Mar-25 16:33N 31°29' E 032°15'1311.7
2015-Mar-25 15:29N 31°38' E 032°05'  
2015-Mar-22 15:19N 36°29' E 013°60'1013.2
2015-Mar-22 14:33N 36°32' E 013°48'1515.2
2015-Mar-22 13:33N 36°37' E 013°30'  
2015-Mar-20 05:34N 35°59' W 005°16'250 6.7
2015-Mar-18 16:32N 37°55' W 009°52'2922.6
2015-Mar-18 15:14N 38°24' W 010°03'1522.3
2015-Mar-18 14:32N 38°39' W 010°07'2322.1
2015-Mar-18 13:29N 39°02' W 010°07'80019.9
2015-Mar-16 21:19N 50°26' W 000°23'1821.9
2015-Mar-16 20:28N 50°31' E 000°05'2021.4
2015-Mar-16 19:33N 50°36' E 000°35'2120.9
2015-Mar-16 18:33N 50°48' E 001°02'2121.3
2015-Mar-16 17:34N 51°02' E 001°27'2323.3
2015-Mar-16 16:34N 51°23' E 001°44'2322.9
2015-Mar-16 15:34N 51°46' E 001°44'1212.1
2015-Mar-16 14:34N 51°56' E 001°33'9 8.8
2015-Mar-16 13:33N 51°57' E 001°19'  

Dump ship's entire track history